Time;durP1;ratioP1;P1;durP2;ratioP2;P2;SDS_P1;SDS_P2;PMS_P1;PMS_P2;Temp;Humidity;BMP_temperature;BMP_pressure;BME280_temperature;BME280_humidity;BME280_pressure;Samples;Min_cycle;Max_cycle;Signal;HPM_P1;HPM_P2
2021/05/20 00:01:13;;;;;;;5.25;2.55;;;12.00;99.90;;;;;;6144552;23;20015;-82
2021/05/20 00:03:42;;;;;;;5.85;2.30;;;11.90;99.90;;;;;;6095801;23;20306;-81
2021/05/20 00:06:10;;;;;;;5.95;2.70;;;11.90;99.90;;;;;;6095811;23;20021;-81
2021/05/20 00:08:37;;;;;;;5.00;2.53;;;11.80;99.90;;;;;;6097608;23;20021;-82
2021/05/20 00:11:05;;;;;;;3.90;2.38;;;11.60;99.90;;;;;;6102605;23;20010;-82
2021/05/20 00:13:34;;;;;;;4.60;2.88;;;11.50;99.90;;;;;;6121428;23;20485;-82
2021/05/20 00:16:04;;;;;;;;;;;11.40;99.90;;;;;;6125759;23;20013;-82
2021/05/20 00:18:31;;;;;;;5.07;3.30;;;11.20;99.90;;;;;;6127198;23;19921;-82
2021/05/20 00:21:00;;;;;;;6.53;3.15;;;11.20;99.90;;;;;;6154210;23;20010;-82
2021/05/20 00:23:28;;;;;;;5.47;3.08;;;11.10;99.90;;;;;;6123453;23;20017;-82
2021/05/20 00:25:57;;;;;;;5.15;2.80;;;10.90;99.90;;;;;;6100801;23;20006;-82
2021/05/20 00:28:24;;;;;;;6.15;3.47;;;10.90;99.90;;;;;;6123662;23;20014;-82
2021/05/20 00:31:05;;;;;;;4.53;2.85;;;10.90;99.90;;;;;;6102154;23;20014;-82
2021/05/20 00:33:33;;;;;;;5.20;2.92;;;10.90;99.90;;;;;;6099101;23;20045;-83
2021/05/20 00:36:03;;;;;;;5.60;3.33;;;10.90;99.90;;;;;;6099321;23;20006;-82
2021/05/20 00:38:32;;;;;;;7.15;2.97;;;10.90;99.90;;;;;;6096326;23;20025;-82
2021/05/20 00:40:59;;;;;;;7.10;3.30;;;11.00;99.90;;;;;;6094243;23;20021;-82
2021/05/20 00:43:27;;;;;;;4.60;3.05;;;10.90;99.90;;;;;;6121583;23;20021;-82
2021/05/20 00:45:54;;;;;;;4.60;2.80;;;11.00;99.90;;;;;;6118123;23;20013;-82
2021/05/20 00:48:23;;;;;;;4.68;2.58;;;11.10;99.90;;;;;;6093721;23;20010;-82
2021/05/20 00:50:50;;;;;;;5.37;2.73;;;11.10;99.90;;;;;;6070475;23;20014;-82
2021/05/20 00:53:18;;;;;;;4.50;2.42;;;11.20;99.90;;;;;;6118266;23;20585;-82
2021/05/20 00:55:50;;;;;;;4.25;2.33;;;11.10;99.90;;;;;;6145624;23;20352;-82
2021/05/20 00:58:18;;;;;;;5.60;2.65;;;11.10;99.90;;;;;;6145951;23;20017;-82
2021/05/20 01:00:46;;;;;;;;;;;11.10;99.90;;;;;;6129911;23;20010;-83
2021/05/20 01:03:13;;;;;;;5.40;2.88;;;11.10;99.90;;;;;;6132055;23;19917;-82
2021/05/20 01:05:41;;;;;;;5.50;3.17;;;11.00;99.90;;;;;;6101757;23;20017;-82
2021/05/20 01:08:08;;;;;;;4.65;2.92;;;11.00;99.90;;;;;;6098931;23;20041;-82
2021/05/20 01:10:37;;;;;;;5.20;2.92;;;10.90;99.90;;;;;;6118741;23;20041;-81
2021/05/20 01:13:05;;;;;;;4.05;2.70;;;10.90;99.90;;;;;;6146539;23;20013;-82
2021/05/20 01:15:32;;;;;;;3.78;2.67;;;10.90;99.90;;;;;;6145759;23;20010;-82
2021/05/20 01:18:03;;;;;;;5.13;2.63;;;11.00;99.90;;;;;;6118893;23;20017;-82
2021/05/20 01:20:33;;;;;;;5.43;2.83;;;10.90;99.90;;;;;;6072835;23;20010;-82
2021/05/20 01:23:06;;;;;;;4.07;2.47;;;10.90;99.90;;;;;;6096903;23;20021;-82
2021/05/20 01:25:35;;;;;;;3.95;2.50;;;11.00;99.90;;;;;;6097583;23;20302;-82
2021/05/20 01:28:06;;;;;;;4.22;2.25;;;11.00;99.90;;;;;;6122449;23;20010;-81
2021/05/20 01:30:35;;;;;;;5.10;3.13;;;11.00;99.90;;;;;;6122554;23;20014;-82
2021/05/20 01:33:03;;;;;;;6.50;2.70;;;10.90;99.90;;;;;;6147334;23;20021;-81
2021/05/20 01:35:31;;;;;;;4.82;2.63;;;10.90;99.90;;;;;;6100845;23;20005;-81
2021/05/20 01:41:05;;;;;;;4.18;2.60;;;10.90;99.90;;;;;;3614381;39;20468;-85
2021/05/20 01:43:33;;;;;;;6.88;2.83;;;10.80;99.90;;;;;;3603083;39;20390;-81
2021/05/20 01:46:01;;;;;;;5.90;3.50;;;10.70;99.90;;;;;;3591760;39;20056;-84
2021/05/20 01:48:30;;;;;;;4.83;2.70;;;10.60;99.90;;;;;;3599639;39;20063;-83
2021/05/20 01:51:04;;;;;;;3.85;2.80;;;10.70;99.90;;;;;;3601390;39;20318;-80
2021/05/20 01:53:33;;;;;;;4.45;2.75;;;10.90;99.90;;;;;;3592684;39;20128;-82
2021/05/20 01:56:00;;;;;;;5.20;3.05;;;10.80;99.90;;;;;;3609405;39;20326;-81
2021/05/20 01:58:31;;;;;;;7.65;3.33;;;10.70;99.90;;;;;;3591702;39;20072;-81
2021/05/20 02:00:59;;;;;;;6.45;3.15;;;10.50;99.90;;;;;;3608896;39;20072;-81
2021/05/20 02:03:28;;;;;;;5.10;3.47;;;10.50;99.90;;;;;;3591015;39;20300;-82
2021/05/20 02:05:58;;;;;;;6.70;3.30;;;10.50;99.90;;;;;;3591610;39;20068;-80
2021/05/20 02:08:26;;;;;;;;;;;10.50;99.90;;;;;;3592010;39;20095;-82
2021/05/20 02:10:55;;;;;;;7.53;3.85;;;10.60;99.90;;;;;;3600564;39;20207;-83
2021/05/20 02:13:22;;;;;;;5.07;3.22;;;10.70;99.90;;;;;;3592495;39;20083;-83
2021/05/20 02:15:51;;;;;;;6.03;2.97;;;11.00;99.90;;;;;;3610913;39;20087;-81
2021/05/20 02:18:18;;;;;;;7.30;3.17;;;11.00;99.90;;;;;;3594081;39;20064;-81
2021/05/20 02:20:46;;;;;;;7.20;3.25;;;11.00;99.90;;;;;;3591762;39;20064;-82
2021/05/20 02:23:15;;;;;;;4.88;2.80;;;11.00;99.90;;;;;;3607616;39;20072;-81
2021/05/20 02:25:45;;;;;;;5.20;2.95;;;10.80;99.90;;;;;;3600224;39;20314;-82
2021/05/20 02:28:12;;;;;;;5.47;3.17;;;10.70;99.90;;;;;;3599862;39;20096;-82
2021/05/20 02:30:40;;;;;;;4.68;2.88;;;10.60;99.90;;;;;;3591286;39;20069;-81
2021/05/20 02:33:10;;;;;;;4.97;2.97;;;10.60;99.90;;;;;;3591426;39;20084;-81
2021/05/20 02:35:38;;;;;;;8.18;3.25;;;10.60;99.90;;;;;;3591473;39;20071;-83
2021/05/20 02:38:05;;;;;;;5.40;2.42;;;10.60;99.90;;;;;;3599349;39;20157;-83
2021/05/20 02:40:33;;;;;;;5.32;2.63;;;10.60;99.90;;;;;;3597803;39;20080;-82
2021/05/20 02:43:00;;;;;;;5.25;2.83;;;10.70;99.90;;;;;;3597730;40;20076;-84
2021/05/20 02:45:28;;;;;;;5.55;2.83;;;10.80;99.90;;;;;;3597974;40;20104;-81
2021/05/20 02:47:56;;;;;;;6.22;2.50;;;10.80;99.90;;;;;;3589566;40;20064;-82
2021/05/20 02:50:27;;;;;;;5.25;3.17;;;10.80;99.90;;;;;;3598259;40;20088;-82
2021/05/20 02:52:54;;;;;;;5.43;3.17;;;10.70;99.90;;;;;;3579471;40;20073;-82
2021/05/20 02:55:23;;;;;;;6.35;2.85;;;10.80;99.90;;;;;;3598869;40;20039;-81
2021/05/20 02:57:53;;;;;;;5.75;3.50;;;10.80;99.90;;;;;;3599624;40;20048;-83
2021/05/20 03:00:21;;;;;;;5.55;2.90;;;10.70;99.90;;;;;;3601692;39;20028;-81
2021/05/20 03:02:49;;;;;;;6.55;3.22;;;10.70;99.90;;;;;;3597180;40;20081;-81
2021/05/20 03:05:17;;;;;;;5.32;3.50;;;10.90;99.90;;;;;;3591962;40;20041;-82
2021/05/20 03:07:45;;;;;;;18.20;3.38;;;10.90;99.90;;;;;;3598991;40;20036;-81
2021/05/20 03:10:15;;;;;;;5.93;3.75;;;10.90;99.90;;;;;;3599619;40;20115;-81
2021/05/20 03:12:42;;;;;;;6.68;3.90;;;10.80;99.90;;;;;;3588606;40;20069;-82
2021/05/20 03:15:10;;;;;;;6.40;3.88;;;10.80;99.90;;;;;;3588377;40;20372;-83
2021/05/20 03:17:40;;;;;;;5.90;3.75;;;10.70;99.90;;;;;;3597091;40;20072;-83
2021/05/20 03:20:10;;;;;;;8.95;3.90;;;10.80;99.90;;;;;;3596104;40;20072;-85
2021/05/20 03:22:38;;;;;;;6.40;3.70;;;10.80;99.90;;;;;;3586927;40;20383;-81
2021/05/20 03:25:08;;;;;;;6.35;3.80;;;10.80;99.90;;;;;;3592998;40;20068;-81
2021/05/20 03:27:35;;;;;;;7.45;4.57;;;11.00;99.90;;;;;;3583483;40;20088;-81
2021/05/20 03:30:03;;;;;;;7.35;4.47;;;11.00;99.90;;;;;;3591831;40;20052;-82
2021/05/20 03:32:31;;;;;;;;;;;11.00;99.90;;;;;;3591661;40;20088;-83
2021/05/20 03:34:58;;;;;;;7.28;3.75;;;11.00;99.90;;;;;;3591224;40;20276;-82
2021/05/20 03:37:25;;;;;;;11.68;4.22;;;10.90;99.90;;;;;;3582875;40;20092;-83
2021/05/20 03:39:52;;;;;;;5.80;3.50;;;11.00;99.90;;;;;;3589831;40;20289;-82
2021/05/20 03:42:20;;;;;;;7.13;3.53;;;10.90;99.90;;;;;;3590734;40;20383;-82
2021/05/20 03:44:48;;;;;;;7.33;4.17;;;10.80;99.90;;;;;;3583076;40;20080;-81
2021/05/20 03:47:15;;;;;;;6.10;3.58;;;10.80;99.90;;;;;;3583151;40;20095;-81
2021/05/20 03:49:44;;;;;;;6.00;3.80;;;10.80;99.90;;;;;;3591479;40;20068;-82
2021/05/20 03:52:11;;;;;;;5.20;3.40;;;10.90;99.90;;;;;;3582886;40;20416;-82
2021/05/20 03:54:42;;;;;;;5.55;3.05;;;10.80;99.90;;;;;;3591199;40;20064;-82
2021/05/20 03:57:09;;;;;;;7.50;4.50;;;10.80;99.90;;;;;;3583268;40;20307;-83
2021/05/20 03:59:37;;;;;;;9.70;3.80;;;10.90;99.90;;;;;;3591193;40;20099;-81
2021/05/20 04:02:08;;;;;;;10.15;3.17;;;11.00;99.90;;;;;;3591170;40;20069;-81
2021/05/20 04:04:36;;;;;;;6.45;4.40;;;10.90;99.90;;;;;;3591043;40;20084;-84
2021/05/20 04:07:03;;;;;;;5.90;4.00;;;10.90;99.90;;;;;;3585803;40;20076;-80
2021/05/20 04:09:33;;;;;;;9.48;4.75;;;10.80;99.90;;;;;;3592361;40;20088;-81
2021/05/20 04:12:02;;;;;;;7.60;4.40;;;10.80;99.90;;;;;;3591270;40;20068;-82
2021/05/20 04:14:32;;;;;;;7.68;4.30;;;10.90;99.90;;;;;;3575112;40;20104;-82
2021/05/20 04:17:00;;;;;;;13.68;4.78;;;11.00;99.90;;;;;;3591393;40;20088;-83
2021/05/20 04:19:27;;;;;;;8.57;4.63;;;11.00;99.90;;;;;;3590488;40;20072;-81
2021/05/20 04:21:55;;;;;;;6.78;4.25;;;11.00;99.90;;;;;;3590504;40;20403;-80
2021/05/20 04:24:24;;;;;;;11.38;4.10;;;11.10;99.90;;;;;;3591668;40;20073;-80
2021/05/20 04:26:52;;;;;;;7.35;4.32;;;11.20;99.90;;;;;;3582515;40;20068;-81
2021/05/20 04:29:20;;;;;;;11.02;4.60;;;11.30;99.90;;;;;;3590510;40;20096;-80
2021/05/20 04:31:47;;;;;;;7.68;4.55;;;11.30;99.90;;;;;;3590535;40;20073;-81
2021/05/20 04:34:15;;;;;;;9.32;4.47;;;11.20;99.90;;;;;;3582416;40;20099;-81
2021/05/20 04:36:45;;;;;;;6.53;4.18;;;11.20;99.90;;;;;;3582900;40;20068;-81
2021/05/20 04:39:12;;;;;;;10.20;5.00;;;11.20;99.90;;;;;;3592957;40;20067;-84
2021/05/20 04:41:40;;;;;;;7.50;4.07;;;11.20;99.90;;;;;;3601563;39;20092;-82
2021/05/20 04:44:07;;;;;;;8.07;4.03;;;11.20;99.90;;;;;;3586117;40;20096;-79
2021/05/20 04:46:35;;;;;;;11.80;4.28;;;11.30;99.90;;;;;;3588366;40;20068;-83
2021/05/20 04:49:11;;;;;;;9.15;4.20;;;11.30;99.90;;;;;;3587275;40;20060;-81
2021/05/20 04:51:39;;;;;;;6.55;3.90;;;11.40;99.90;;;;;;3584210;40;20411;-83
2021/05/20 04:54:07;;;;;;;9.05;3.67;;;11.50;99.90;;;;;;3583350;40;20084;-83
2021/05/20 04:56:34;;;;;;;9.52;4.50;;;11.50;99.90;;;;;;3566512;40;20061;-83
2021/05/20 04:59:03;;;;;;;8.18;3.92;;;11.50;99.90;;;;;;3574427;40;20089;-83
2021/05/20 05:01:30;;;;;;;10.73;4.05;;;11.50;99.90;;;;;;3584095;40;20084;-81
2021/05/20 05:03:57;;;;;;;6.28;3.53;;;11.50;99.90;;;;;;3592855;40;20088;-82
2021/05/20 05:06:26;;;;;;;7.65;3.50;;;11.50;99.90;;;;;;3601667;39;20076;-82
2021/05/20 05:08:55;;;;;;;5.45;4.03;;;11.40;99.90;;;;;;3602036;39;20092;-81
2021/05/20 05:11:22;;;;;;;6.60;3.83;;;11.50;99.90;;;;;;3583864;40;20083;-81
2021/05/20 05:13:49;;;;;;;6.40;3.60;;;11.50;99.90;;;;;;3592381;40;20284;-81
2021/05/20 05:16:16;;;;;;;7.20;3.80;;;11.40;99.90;;;;;;3593351;40;20092;-80
2021/05/20 05:18:46;;;;;;;8.57;4.30;;;11.40;99.90;;;;;;3584423;40;20076;-83
2021/05/20 05:21:15;;;;;;;7.82;4.47;;;11.30;99.90;;;;;;3596838;40;20127;-83
2021/05/20 05:23:44;;;;;;;6.75;4.07;;;11.30;99.90;;;;;;3590171;40;20072;-83
2021/05/20 05:26:13;;;;;;;6.53;4.18;;;11.30;99.90;;;;;;3599401;40;20061;-82
2021/05/20 05:28:41;;;;;;;10.32;4.75;;;11.30;99.90;;;;;;3598101;40;20084;-84
2021/05/20 05:31:09;;;;;;;7.93;4.20;;;11.40;99.90;;;;;;3581431;40;20091;-82
2021/05/20 05:33:37;;;;;;;8.32;3.83;;;11.50;99.90;;;;;;3600047;40;20036;-82
2021/05/20 05:36:06;;;;;;;12.38;4.85;;;11.50;99.90;;;;;;3589712;40;20064;-86
2021/05/20 05:38:33;;;;;;;9.48;5.18;;;11.60;99.90;;;;;;3588291;40;20069;-80
2021/05/20 05:41:00;;;;;;;10.57;4.38;;;11.70;99.90;;;;;;3594898;40;20080;-83
2021/05/20 05:43:28;;;;;;;9.80;4.63;;;11.80;99.90;;;;;;3593776;40;20088;-84
2021/05/20 05:45:57;;;;;;;12.63;4.53;;;11.90;99.90;;;;;;3593560;40;20072;-81
2021/05/20 05:48:25;;;;;;;8.95;4.50;;;11.90;99.90;;;;;;3590964;40;20092;-81
2021/05/20 05:50:56;;;;;;;8.48;4.18;;;12.00;99.90;;;;;;3588895;40;20064;-80
2021/05/20 05:53:24;;;;;;;7.80;4.32;;;12.20;99.90;;;;;;3581208;40;20120;-80
2021/05/20 05:55:52;;;;;;;8.53;4.67;;;12.10;99.90;;;;;;3581888;40;20111;-83
2021/05/20 05:58:20;;;;;;;8.55;4.45;;;12.10;99.90;;;;;;3590450;39;20084;-80
2021/05/20 06:00:48;;;;;;;5.90;3.88;;;12.20;99.90;;;;;;3591447;40;20415;-84
2021/05/20 06:03:15;;;;;;;10.27;4.25;;;12.30;99.90;;;;;;3590354;40;20068;-83
2021/05/20 06:05:46;;;;;;;8.07;3.83;;;12.30;99.90;;;;;;3598588;40;20068;-83
2021/05/20 06:08:14;;;;;;;8.50;4.43;;;12.30;99.90;;;;;;3590455;40;20073;-83
2021/05/20 06:10:43;;;;;;;9.15;5.05;;;12.20;99.90;;;;;;3589514;40;20096;-82
2021/05/20 06:13:13;;;;;;;9.55;4.13;;;12.10;99.90;;;;;;3587135;40;20072;-82
2021/05/20 06:15:42;;;;;;;6.47;4.05;;;12.10;99.90;;;;;;3591346;39;20072;-81
2021/05/20 06:18:11;;;;;;;8.17;4.33;;;12.30;99.90;;;;;;3581169;40;20068;-80
2021/05/20 06:20:39;;;;;;;8.02;4.20;;;12.30;99.90;;;;;;3589328;40;20072;-85
2021/05/20 06:23:09;;;;;;;7.72;4.65;;;12.40;99.90;;;;;;3589392;40;20419;-79
2021/05/20 06:25:37;;;;;;;8.02;5.03;;;12.20;99.90;;;;;;3580770;40;20084;-81
2021/05/20 06:28:08;;;;;;;12.15;5.35;;;12.20;99.90;;;;;;3591302;40;20088;-81
2021/05/20 06:30:35;;;;;;;16.30;4.78;;;12.30;99.90;;;;;;3582570;40;20088;-82
2021/05/20 06:33:03;;;;;;;10.07;5.38;;;12.30;99.90;;;;;;3589967;40;20061;-80
2021/05/20 06:35:31;;;;;;;8.38;5.35;;;12.50;99.90;;;;;;3582725;40;20418;-81
2021/05/20 06:37:58;;;;;;;11.43;4.87;;;12.60;99.90;;;;;;3589232;40;20376;-82
2021/05/20 06:40:25;;;;;;;11.52;5.57;;;12.80;99.90;;;;;;3580984;40;20073;-79
2021/05/20 06:42:55;;;;;;;9.07;4.97;;;13.10;99.90;;;;;;3591719;40;20084;-82
2021/05/20 06:45:23;;;;;;;7.68;5.13;;;13.10;99.90;;;;;;3589669;40;20130;-81
2021/05/20 06:47:52;;;;;;;11.10;5.57;;;13.20;99.90;;;;;;3596839;40;20100;-80
2021/05/20 06:50:20;;;;;;;7.82;5.47;;;13.30;99.90;;;;;;3591339;40;20072;-83
2021/05/20 06:52:50;;;;;;;16.80;5.30;;;13.20;99.90;;;;;;3590382;40;20076;-82
2021/05/20 06:55:17;;;;;;;9.23;5.15;;;13.20;99.90;;;;;;3588116;40;20589;-81
2021/05/20 07:00:30;;;;;;;13.15;5.57;;;13.60;99.90;;;;;;3581739;40;20084;-78
2021/05/20 07:02:57;;;;;;;7.78;4.80;;;13.90;99.90;;;;;;3590482;40;20092;-80
2021/05/20 07:05:24;;;;;;;7.57;5.15;;;14.00;99.90;;;;;;3591073;40;20065;-79
2021/05/20 07:07:55;;;;;;;6.88;4.50;;;14.20;99.90;;;;;;3598115;39;20361;-81
2021/05/20 07:10:24;;;;;;;8.20;5.07;;;14.10;99.90;;;;;;3581591;40;20068;-81
2021/05/20 07:12:52;;;;;;;8.90;5.25;;;13.90;99.90;;;;;;3574049;40;20080;-80
2021/05/20 07:15:20;;;;;;;9.32;5.28;;;13.70;99.90;;;;;;3588617;40;20301;-80
2021/05/20 07:17:47;;;;;;;9.30;5.50;;;13.40;99.90;;;;;;3579822;40;20121;-79
2021/05/20 07:20:15;;;;;;;8.77;5.55;;;13.40;99.90;;;;;;3582101;40;20358;-80
2021/05/20 07:22:44;;;;;;;10.55;5.60;;;13.50;99.90;;;;;;3582944;40;20376;-77
2021/05/20 07:25:15;;;;;;;7.22;5.43;;;13.40;99.90;;;;;;3591869;40;20088;-79
2021/05/20 07:27:43;;;;;;;12.93;6.03;;;13.50;99.90;;;;;;3582728;40;20061;-78
2021/05/20 07:30:14;;;;;;;9.70;6.25;;;13.60;99.90;;;;;;3585649;40;20439;-79
2021/05/20 07:32:43;;;;;;;8.48;5.80;;;13.70;99.90;;;;;;3573940;40;20084;-79
2021/05/20 07:35:12;;;;;;;9.45;5.63;;;13.80;99.90;;;;;;3592441;40;20056;-78
2021/05/20 07:37:39;;;;;;;8.63;6.30;;;14.00;99.90;;;;;;3582693;40;20100;-80
2021/05/20 07:40:11;;;;;;;10.63;6.50;;;14.20;99.90;;;;;;3573674;40;20089;-79
2021/05/20 07:42:42;;;;;;;14.52;6.57;;;14.50;99.90;;;;;;3583249;40;20076;-78
2021/05/20 07:45:12;;;;;;;12.63;7.57;;;14.60;99.90;;;;;;3582788;40;20080;-79
2021/05/20 07:47:40;;;;;;;9.35;6.95;;;14.70;99.90;;;;;;3590970;40;20065;-79
2021/05/20 07:50:09;;;;;;;18.85;7.40;;;14.70;99.90;;;;;;3591279;40;20072;-79
2021/05/20 07:52:39;;;;;;;9.63;6.70;;;14.80;99.90;;;;;;3583128;40;20225;-79
2021/05/20 07:55:08;;;;;;;11.95;6.80;;;15.00;99.90;;;;;;3588760;40;20096;-78
2021/05/20 07:57:35;;;;;;;;;;;15.30;99.90;;;;;;3591468;40;20080;-79
2021/05/20 08:00:09;;;;;;;11.52;6.68;;;15.40;99.90;;;;;;3588459;40;19996;-82
2021/05/20 08:02:49;;;;;;;9.88;6.80;;;15.40;99.90;;;;;;3574316;40;20092;-79
2021/05/20 08:05:26;;;;;;;10.00;6.65;;;15.40;99.90;;;;;;3590282;40;20280;-80
2021/05/20 08:07:57;;;;;;;11.27;6.68;;;15.40;99.90;;;;;;3582717;40;20072;-81
2021/05/20 08:10:47;;;;;;;12.13;6.50;;;15.40;99.90;;;;;;3582020;40;20080;-80
2021/05/20 08:13:15;;;;;;;8.25;5.85;;;15.90;99.90;;;;;;3582442;40;20080;-80
2021/05/20 08:15:46;;;;;;;8.88;6.53;;;16.20;99.90;;;;;;3591249;40;20093;-79
2021/05/20 08:18:16;;;;;;;10.65;6.68;;;16.10;99.90;;;;;;3590299;40;20087;-80
2021/05/20 08:20:43;;;;;;;10.88;6.30;;;16.10;99.90;;;;;;3591465;40;20073;-79
2021/05/20 08:23:11;;;;;;;11.07;7.07;;;15.80;99.90;;;;;;3574324;40;20318;-78
2021/05/20 08:25:40;;;;;;;11.25;6.32;;;15.50;99.90;;;;;;3590943;40;20068;-81
2021/05/20 08:28:08;;;;;;;14.27;7.78;;;15.40;99.90;;;;;;3592039;40;20147;-77
2021/05/20 08:30:35;;;;;;;9.20;5.90;;;15.40;99.90;;;;;;3600503;40;20076;-79
2021/05/20 08:33:06;;;;;;;8.65;5.47;;;15.50;99.90;;;;;;3577786;40;20053;-80
2021/05/20 08:35:34;;;;;;;11.98;7.07;;;15.70;99.90;;;;;;3581464;40;20084;-79
2021/05/20 08:38:02;;;;;;;18.63;6.60;;;15.80;99.90;;;;;;3582470;40;20085;-80
2021/05/20 08:40:30;;;;;;;10.63;6.07;;;15.80;99.90;;;;;;3595946;39;20068;-81
2021/05/20 08:42:57;;;;;;;8.65;5.70;;;15.70;99.50;;;;;;3591648;40;20072;-81
2021/05/20 08:45:29;;;;;;;8.60;6.25;;;16.00;99.30;;;;;;3583681;40;20072;-80
2021/05/20 08:47:58;;;;;;;11.48;6.13;;;16.50;98.70;;;;;;3583827;40;20096;-81
2021/05/20 08:50:29;;;;;;;8.82;6.88;;;16.40;97.70;;;;;;3584003;40;20080;-81
2021/05/20 08:53:02;;;;;;;9.85;5.50;;;16.40;97.90;;;;;;3584333;40;20088;-81
2021/05/20 08:55:32;;;;;;;8.93;5.60;;;16.80;96.50;;;;;;3591962;40;20088;-82
2021/05/20 08:58:00;;;;;;;11.88;6.03;;;16.90;94.40;;;;;;3593003;40;20063;-81
2021/05/20 09:00:31;;;;;;;9.18;5.90;;;16.90;94.50;;;;;;3591281;40;20088;-81
2021/05/20 09:03:05;;;;;;;9.15;5.68;;;16.40;93.80;;;;;;3580939;40;20300;-81
2021/05/20 09:05:37;;;;;;;11.38;5.68;;;16.00;96.00;;;;;;3587697;40;20084;-81
2021/05/20 09:08:09;;;;;;;7.53;5.47;;;15.70;96.50;;;;;;3582449;40;20087;-80
2021/05/20 09:10:43;;;;;;;11.13;6.40;;;15.60;97.30;;;;;;3592475;40;20116;-81
2021/05/20 09:13:14;;;;;;;10.00;6.80;;;15.40;98.00;;;;;;3603525;39;20088;-82
2021/05/20 09:15:43;;;;;;;8.35;6.03;;;15.40;98.50;;;;;;3593069;40;20068;-81
2021/05/20 09:18:16;;;;;;;11.52;6.53;;;15.60;98.80;;;;;;3590324;40;20092;-82
2021/05/20 09:20:49;;;;;;;10.85;6.45;;;15.50;97.90;;;;;;3600699;40;20087;-82
2021/05/20 09:23:18;;;;;;;8.50;6.13;;;15.40;97.80;;;;;;3587612;40;20379;-81
2021/05/20 09:25:47;;;;;;;8.98;6.32;;;15.60;97.60;;;;;;3581705;40;20076;-82
2021/05/20 09:28:17;;;;;;;9.57;6.65;;;15.40;97.10;;;;;;3575366;40;20052;-81
2021/05/20 09:30:46;;;;;;;11.55;6.32;;;15.20;97.70;;;;;;3583460;40;20095;-80
2021/05/20 09:33:13;;;;;;;;;;;15.30;98.10;;;;;;3585937;40;20100;-84
2021/05/20 09:35:43;;;;;;;10.68;6.38;;;15.70;97.70;;;;;;3595977;39;19971;-84
2021/05/20 09:38:13;;;;;;;9.52;6.68;;;16.40;96.70;;;;;;3593162;40;20383;-79
2021/05/20 09:40:45;;;;;;;9.07;6.03;;;17.20;95.40;;;;;;3584764;40;20069;-81
2021/05/20 09:43:18;;;;;;;8.80;5.38;;;17.70;91.40;;;;;;3601273;39;20387;-80
2021/05/20 09:45:50;;;;;;;7.78;5.20;;;18.10;84.40;;;;;;3578428;39;20095;-81
2021/05/20 09:48:18;;;;;;;6.45;3.00;;;18.30;81.70;;;;;;3591396;40;20455;-81
2021/05/20 09:50:48;;;;;;;7.73;3.70;;;18.40;74.40;;;;;;3585088;40;20096;-81
2021/05/20 09:53:18;;;;;;;6.93;3.00;;;18.30;71.70;;;;;;3584223;40;20065;-81
2021/05/20 09:55:50;;;;;;;7.93;4.70;;;18.50;71.30;;;;;;3592357;40;20088;-80
2021/05/20 09:58:21;;;;;;;5.43;4.15;;;18.50;69.90;;;;;;3583871;39;20080;-80
2021/05/20 10:00:49;;;;;;;5.60;3.65;;;18.10;69.70;;;;;;3603983;39;20420;-79
2021/05/20 10:03:21;;;;;;;7.65;4.00;;;17.90;71.40;;;;;;3590422;40;20092;-80
2021/05/20 10:05:52;;;;;;;9.15;4.45;;;18.10;72.80;;;;;;3593945;40;20072;-79
2021/05/20 10:08:24;;;;;;;9.80;4.60;;;18.20;72.20;;;;;;3592509;40;20073;-83
2021/05/20 10:10:56;;;;;;;6.70;4.25;;;18.20;70.30;;;;;;3578718;39;20088;-83
2021/05/20 10:13:25;;;;;;;6.45;4.43;;;17.90;72.90;;;;;;3607370;39;20063;-80
2021/05/20 10:15:59;;;;;;;6.10;3.58;;;18.30;71.20;;;;;;3588834;40;20080;-82
2021/05/20 10:18:30;;;;;;;7.78;4.13;;;18.70;70.50;;;;;;3586590;40;20064;-84
2021/05/20 10:21:00;;;;;;;6.83;3.37;;;18.80;67.70;;;;;;3581128;39;20087;-82
2021/05/20 10:23:29;;;;;;;4.07;2.80;;;18.60;65.00;;;;;;3591027;40;20092;-81
2021/05/20 10:25:59;;;;;;;5.50;2.72;;;18.80;63.00;;;;;;3595627;40;20072;-81
2021/05/20 10:28:28;;;;;;;5.38;2.95;;;19.30;61.90;;;;;;3608477;39;20032;-81
2021/05/20 10:30:57;;;;;;;7.18;3.38;;;19.70;58.80;;;;;;3600388;40;20025;-83
2021/05/20 10:33:27;;;;;;;6.07;3.60;;;19.30;59.90;;;;;;3594956;40;20075;-84
2021/05/20 10:35:57;;;;;;;6.85;3.83;;;19.20;60.30;;;;;;3587403;40;20088;-80
2021/05/20 10:38:38;;;;;;;5.47;3.60;;;19.40;61.40;;;;;;3586413;40;20064;-81
2021/05/20 10:41:12;;;;;;;7.68;3.42;;;19.90;61.70;;;;;;3576325;40;20080;-85
2021/05/20 10:43:43;;;;;;;4.78;3.15;;;20.40;60.70;;;;;;3598175;40;20060;-81
2021/05/20 10:46:18;;;;;;;7.30;4.47;;;21.20;59.60;;;;;;3595195;40;20072;-79
2021/05/20 10:48:51;;;;;;;8.10;3.83;;;22.40;54.50;;;;;;3583480;40;20091;-82
2021/05/20 10:51:22;;;;;;;6.43;4.18;;;23.00;52.10;;;;;;3584706;40;20072;-80
2021/05/20 10:54:14;;;;;;;6.82;3.80;;;22.60;53.40;;;;;;3594089;40;20087;-82
2021/05/20 10:56:49;;;;;;;7.55;3.92;;;22.50;53.50;;;;;;3594884;39;20087;-80
2021/05/20 10:59:39;;;;;;;4.70;3.22;;;22.90;53.10;;;;;;3592214;40;20072;-80
2021/05/20 11:02:16;;;;;;;5.45;3.10;;;24.20;50.90;;;;;;3602388;39;20071;-79
2021/05/20 11:04:44;;;;;;;6.70;3.13;;;25.80;47.90;;;;;;3593802;40;20072;-82
2021/05/20 11:07:13;;;;;;;7.72;4.10;;;27.10;43.70;;;;;;3591947;40;20072;-81
2021/05/20 11:09:52;;;;;;;4.73;3.33;;;26.10;42.00;;;;;;3583690;39;20088;-81
2021/05/20 11:12:19;;;;;;;6.60;3.10;;;24.10;44.50;;;;;;3590745;40;20143;-80
2021/05/20 11:14:50;;;;;;;4.80;3.00;;;24.80;43.50;;;;;;3596806;39;20355;-79
2021/05/20 11:17:45;;;;;;;5.63;2.42;;;25.90;43.10;;;;;;3593878;40;20346;-78
2021/05/20 11:20:31;;;;;;;5.55;2.25;;;27.90;39.80;;;;;;3599577;40;20413;-79
2021/05/20 11:23:32;;;;;;;5.13;3.05;;;29.60;39.60;;;;;;3591109;40;20100;-78
2021/05/20 11:26:19;;;;;;;6.47;2.70;;;30.70;37.60;;;;;;3600257;39;20072;-78
2021/05/20 11:28:49;;;;;;;6.13;2.75;;;31.10;35.10;;;;;;3591720;39;20064;-81
2021/05/20 11:31:17;;;;;;;3.42;1.95;;;31.20;35.10;;;;;;3595155;40;20080;-80
2021/05/20 11:34:05;;;;;;;4.85;2.30;;;31.50;35.10;;;;;;3578577;40;20108;-79
2021/05/20 11:36:48;;;;;;;8.68;3.10;;;31.50;34.10;;;;;;3593876;39;20063;-80
2021/05/20 11:39:20;;;;;;;5.90;2.80;;;29.80;34.80;;;;;;3590544;40;20387;-78
2021/05/20 11:41:52;;;;;;;7.80;3.42;;;28.00;37.00;;;;;;3602790;39;20097;-81
2021/05/20 11:44:22;;;;;;;5.03;2.90;;;25.40;38.50;;;;;;3585247;40;20072;-80
2021/05/20 11:47:03;;;;;;;5.32;2.80;;;24.00;39.80;;;;;;3602620;39;20087;-80
2021/05/20 11:49:33;;;;;;;6.35;2.85;;;23.20;41.20;;;;;;3596361;40;20067;-78
2021/05/20 11:52:07;;;;;;;5.78;2.78;;;22.60;42.90;;;;;;3583254;39;20055;-81
2021/05/20 11:54:36;;;;;;;12.38;3.45;;;21.90;44.20;;;;;;3599000;40;20111;-81
2021/05/20 11:57:06;;;;;;;28.17;4.07;;;21.40;46.00;;;;;;3603146;40;20043;-81
2021/05/20 11:59:49;;;;;;;16.30;8.65;;;20.90;46.60;;;;;;3595759;39;20068;-81
2021/05/20 12:02:22;;;;;;;7.80;2.60;;;20.70;47.10;;;;;;3592712;40;20095;-79
2021/05/20 12:04:57;;;;;;;5.00;2.97;;;20.60;46.60;;;;;;3596313;40;20064;-81
2021/05/20 12:07:27;;;;;;;3.83;2.55;;;22.30;45.90;;;;;;3584169;40;20061;-79
2021/05/20 12:10:07;;;;;;;6.50;2.20;;;24.50;41.40;;;;;;3583044;40;20052;-80
2021/05/20 12:12:37;;;;;;;5.97;2.15;;;25.60;37.90;;;;;;3594153;40;20089;-79
2021/05/20 12:15:11;;;;;;;7.65;3.30;;;27.00;37.80;;;;;;3584155;40;20300;-80
2021/05/20 12:17:42;;;;;;;4.78;2.30;;;28.50;35.90;;;;;;3584140;39;20084;-80
2021/05/20 12:20:14;;;;;;;3.40;1.70;;;29.90;34.40;;;;;;3578882;40;20100;-79
2021/05/20 12:22:43;;;;;;;3.92;1.77;;;28.80;33.40;;;;;;3589950;40;20076;-82
2021/05/20 12:25:14;;;;;;;5.82;2.20;;;27.00;35.00;;;;;;3583417;40;20088;-80
2021/05/20 12:27:44;;;;;;;4.05;2.03;;;25.80;37.00;;;;;;3575570;40;20071;-86
2021/05/20 12:30:20;;;;;;;6.90;1.92;;;25.00;38.50;;;;;;3592296;40;20148;-83
2021/05/20 12:32:51;;;;;;;7.13;1.50;;;24.50;39.40;;;;;;3592500;40;20069;-81
2021/05/20 12:35:29;;;;;;;3.50;1.90;;;25.50;38.90;;;;;;3588495;40;20056;-82
2021/05/20 12:38:05;;;;;;;2.20;1.50;;;26.70;37.70;;;;;;3576174;40;20136;-82
2021/05/20 12:40:36;;;;;;;4.05;1.90;;;28.30;35.80;;;;;;3591267;40;20091;-82
2021/05/20 12:43:09;;;;;;;5.47;1.90;;;29.80;33.60;;;;;;3584851;40;20414;-80
2021/05/20 12:45:39;;;;;;;4.88;1.70;;;31.30;32.70;;;;;;3589269;40;20087;-81
2021/05/20 12:48:28;;;;;;;2.80;1.45;;;32.50;31.90;;;;;;3587703;40;20072;-83
2021/05/20 12:50:58;;;;;;;4.80;1.70;;;28.00;32.40;;;;;;3591974;40;20140;-82
2021/05/20 12:53:35;;;;;;;3.58;1.60;;;23.90;37.90;;;;;;3597987;40;20077;-82
2021/05/20 12:56:05;;;;;;;6.13;1.98;;;24.40;38.70;;;;;;3575314;40;20077;-80
2021/05/20 12:58:51;;;;;;;3.95;2.15;;;26.80;37.30;;;;;;3596634;40;20063;-80
2021/05/20 13:01:20;;;;;;;3.13;1.45;;;28.70;34.40;;;;;;3603911;39;20081;-81
2021/05/20 13:03:51;;;;;;;2.75;1.52;;;30.00;33.60;;;;;;3585777;40;20076;-80
2021/05/20 13:06:23;;;;;;;2.70;1.35;;;30.20;31.20;;;;;;3606428;39;20104;-80